createdAt,value
2023-01-20T00:04:51.943Z,2.83
2023-01-20T00:09:56.677Z,2.90
2023-01-20T00:15:00.505Z,2.80
2023-01-20T00:20:04.244Z,2.87
2023-01-20T00:25:10.560Z,2.87
2023-01-20T00:30:14.988Z,3.23
2023-01-20T00:35:18.446Z,3.10
2023-01-20T00:40:23.246Z,2.77
2023-01-20T00:45:26.638Z,3.37
2023-01-20T00:50:30.044Z,3.30
2023-01-20T00:55:35.144Z,3.30
2023-01-20T01:00:38.671Z,3.80
2023-01-20T01:05:42.319Z,3.60
2023-01-20T01:10:47.120Z,3.80
2023-01-20T01:15:51.198Z,3.57
2023-01-20T01:20:54.585Z,3.83
2023-01-20T01:25:59.404Z,3.83
2023-01-20T01:31:03.320Z,4.40
2023-01-20T01:36:08.641Z,3.90
2023-01-20T01:41:14.490Z,3.70
2023-01-20T01:46:17.826Z,4.00
2023-01-20T01:51:26.353Z,3.60
2023-01-20T01:56:32.583Z,3.73
2023-01-20T02:01:40.333Z,3.90
2023-01-20T02:06:47.336Z,4.50
2023-01-20T02:11:54.802Z,4.30
2023-01-20T02:17:06.392Z,5.00
2023-01-20T02:22:25.732Z,4.90
2023-01-20T02:27:44.593Z,4.80
2023-01-20T02:32:57.962Z,5.30
2023-01-20T02:38:12.614Z,5.07
2023-01-20T02:43:24.060Z,5.20
2023-01-20T02:48:35.381Z,5.70
2023-01-20T02:53:44.912Z,7.00
2023-01-20T02:58:51.727Z,6.33
2023-01-20T03:04:00.039Z,6.00
2023-01-20T03:09:07.934Z,6.33
2023-01-20T03:14:14.035Z,25.27
2023-01-20T03:19:20.585Z,30.00
2023-01-20T03:24:28.383Z,9.13
2023-01-20T03:29:32.722Z,8.17
2023-01-20T03:34:40.715Z,7.83
2023-01-20T03:39:44.216Z,8.53
2023-01-20T03:45:01.030Z,9.27
2023-01-20T03:50:14.599Z,9.70
2023-01-20T03:55:22.390Z,10.43
2023-01-20T04:00:29.673Z,10.03
2023-01-20T04:05:36.276Z,10.77
2023-01-20T04:10:44.292Z,9.83
2023-01-20T04:15:48.049Z,9.47
2023-01-20T04:20:56.475Z,9.33
2023-01-20T04:26:00.163Z,8.87
2023-01-20T04:31:04.013Z,8.30
2023-01-20T04:36:09.430Z,9.00
2023-01-20T04:41:13.725Z,9.27
2023-01-20T04:46:17.611Z,9.80
2023-01-20T04:51:22.745Z,10.40
2023-01-20T04:56:26.150Z,10.63
2023-01-20T05:01:29.550Z,13.47
2023-01-20T05:06:35.446Z,14.30
2023-01-20T05:11:38.811Z,13.67
2023-01-20T05:16:42.969Z,11.20
2023-01-20T05:21:47.766Z,11.23
2023-01-20T05:26:51.112Z,11.10
2023-01-20T05:31:54.805Z,11.27
2023-01-20T05:36:59.582Z,11.97
2023-01-20T05:42:03.322Z,11.53
2023-01-20T05:47:06.730Z,11.20
2023-01-20T05:52:11.785Z,11.83
2023-01-20T05:57:18.297Z,12.20
2023-01-20T06:02:22.039Z,12.63
2023-01-20T06:07:26.948Z,13.27
2023-01-20T06:12:30.366Z,11.07
2023-01-20T06:17:33.808Z,11.20
2023-01-20T06:22:38.807Z,10.70
2023-01-20T06:27:42.349Z,11.10
2023-01-20T06:32:47.636Z,10.43
2023-01-20T06:37:52.430Z,10.20
2023-01-20T06:42:55.760Z,10.03
2023-01-20T06:47:59.481Z,10.47
2023-01-20T06:53:04.593Z,9.23
2023-01-20T06:58:08.192Z,10.20
2023-01-20T07:03:14.045Z,9.73
2023-01-20T07:08:18.905Z,9.37
2023-01-20T07:13:22.264Z,9.00
2023-01-20T07:18:25.638Z,8.07
2023-01-20T07:23:32.516Z,7.57
2023-01-20T07:28:37.293Z,7.37
2023-01-20T07:33:41.120Z,7.70
2023-01-20T07:38:48.921Z,7.37
2023-01-20T07:43:53.843Z,7.90
2023-01-20T07:48:58.074Z,7.50
2023-01-20T07:54:04.485Z,8.13
2023-01-20T07:59:07.869Z,10.13
2023-01-20T08:04:13.203Z,8.30
2023-01-20T08:09:18.307Z,6.90
2023-01-20T08:14:21.815Z,7.10
2023-01-20T08:19:25.583Z,7.17
2023-01-20T08:24:30.785Z,6.60
2023-01-20T08:29:34.996Z,6.03
2023-01-20T08:34:38.688Z,6.27
2023-01-20T08:39:43.745Z,6.40
2023-01-20T08:44:47.705Z,5.97
2023-01-20T08:49:52.307Z,6.00
2023-01-20T08:54:58.772Z,7.23
2023-01-20T09:00:02.592Z,5.37
2023-01-20T09:05:08.787Z,5.50
2023-01-20T09:10:15.182Z,5.37
2023-01-20T09:15:20.716Z,5.30
2023-01-20T09:20:24.789Z,5.60
2023-01-20T09:25:29.615Z,5.37
2023-01-20T09:30:33.470Z,4.73
2023-01-20T09:35:36.935Z,5.23
2023-01-20T09:41:07.209Z,4.40
2023-01-20T09:46:18.981Z,4.20
2023-01-20T09:51:49.879Z,4.73
2023-01-20T09:56:57.891Z,4.53
2023-01-20T10:02:06.769Z,4.47
2023-01-20T10:07:14.508Z,5.17
2023-01-20T10:12:23.442Z,4.60
2023-01-20T10:17:34.092Z,4.70
2023-01-20T10:22:44.299Z,4.77
2023-01-20T10:27:55.100Z,4.60
2023-01-20T10:33:03.985Z,4.63
2023-01-20T10:38:09.493Z,4.67
2023-01-20T10:43:17.081Z,4.07
2023-01-20T10:48:37.137Z,4.87
2023-01-20T10:53:51.172Z,4.50
2023-01-20T10:58:57.903Z,4.43
2023-01-20T11:04:01.295Z,4.47
2023-01-20T11:09:21.152Z,4.30
2023-01-20T11:14:26.254Z,4.57
2023-01-20T11:19:46.440Z,4.47
2023-01-20T11:24:54.787Z,3.93
2023-01-20T11:30:04.669Z,4.00
2023-01-20T11:35:21.997Z,3.93
2023-01-20T11:40:29.631Z,4.13
2023-01-20T11:45:36.518Z,4.30
2023-01-20T11:50:41.467Z,4.10
2023-01-20T11:55:53.748Z,3.87
2023-01-20T12:01:07.150Z,3.70
2023-01-20T12:06:16.701Z,3.60
2023-01-20T12:11:25.846Z,3.90
2023-01-20T12:16:34.604Z,3.93
2023-01-20T12:21:44.099Z,3.80
2023-01-20T12:26:48.360Z,3.77
2023-01-20T12:31:54.549Z,3.30
2023-01-20T12:37:20.692Z,3.80
2023-01-20T12:42:59.415Z,3.80
2023-01-20T12:48:21.891Z,3.70
2023-01-20T12:53:41.303Z,3.60
2023-01-20T12:58:54.003Z,3.47
2023-01-20T13:04:38.887Z,3.93
2023-01-20T13:10:10.660Z,4.40
2023-01-20T13:15:28.483Z,3.97
2023-01-20T13:20:32.559Z,4.10
2023-01-20T13:25:37.846Z,4.63
2023-01-20T13:30:48.100Z,4.73
2023-01-20T13:35:52.424Z,4.77
2023-01-20T13:41:03.293Z,4.30
2023-01-20T13:46:39.294Z,4.03
2023-01-20T13:51:48.140Z,4.33
2023-01-20T13:56:54.295Z,4.67
2023-01-20T14:01:57.791Z,4.57
2023-01-20T14:07:04.601Z,4.77
2023-01-20T14:12:11.091Z,4.10
2023-01-20T14:17:18.318Z,4.40
2023-01-20T14:22:25.002Z,4.13
2023-01-20T14:27:32.298Z,4.17
2023-01-20T14:32:38.414Z,4.77
2023-01-20T14:37:42.319Z,4.90
2023-01-20T14:42:56.794Z,4.90
2023-01-20T14:48:03.439Z,4.97
2023-01-20T14:53:07.472Z,5.73
2023-01-20T14:58:17.760Z,5.03
2023-01-20T15:03:25.027Z,4.80
2023-01-20T15:08:56.891Z,3.53
2023-01-20T15:14:11.924Z,1.90
2023-01-20T15:19:29.671Z,1.93
2023-01-20T15:24:35.531Z,1.50
2023-01-20T15:29:40.825Z,1.60
2023-01-20T15:34:44.189Z,1.57
2023-01-20T15:39:48.126Z,1.33
2023-01-20T15:44:55.125Z,1.53
2023-01-20T15:49:58.565Z,1.27
2023-01-20T15:55:02.284Z,1.30
2023-01-20T16:00:18.004Z,0.80
2023-01-20T16:05:22.257Z,0.80
2023-01-20T16:10:25.646Z,1.00
2023-01-20T16:15:30.465Z,1.57
2023-01-20T16:20:36.718Z,1.10
2023-01-20T16:25:40.729Z,0.90
2023-01-20T16:30:46.031Z,0.80
2023-01-20T16:35:52.065Z,0.70
2023-01-20T16:41:04.149Z,0.70
2023-01-20T16:46:14.950Z,0.90
2023-01-20T16:51:20.741Z,0.70
2023-01-20T16:56:26.065Z,0.40
2023-01-20T17:01:32.184Z,0.70
2023-01-20T17:06:36.881Z,1.17
2023-01-20T17:11:41.463Z,0.60
2023-01-20T17:16:46.790Z,0.60
2023-01-20T17:21:50.366Z,0.60
2023-01-20T17:26:53.811Z,1.10
2023-01-20T17:31:58.705Z,0.77
2023-01-20T17:37:03.643Z,0.60
2023-01-20T17:42:07.640Z,0.50
2023-01-20T17:47:12.739Z,0.50
2023-01-20T17:52:20.139Z,0.50
2023-01-20T17:57:25.064Z,0.60
2023-01-20T18:02:31.254Z,0.43
2023-01-20T18:07:35.129Z,1.00
2023-01-20T18:12:38.985Z,0.70
2023-01-20T18:17:44.268Z,0.80
2023-01-20T18:22:51.420Z,0.60
2023-01-20T18:27:55.329Z,0.70
2023-01-20T18:33:01.522Z,0.70
2023-01-20T18:38:05.015Z,1.23
2023-01-20T18:43:08.511Z,0.83
2023-01-20T18:48:13.784Z,1.10
2023-01-20T18:53:17.607Z,2.20
2023-01-20T18:58:21.217Z,0.90
2023-01-20T19:03:26.837Z,1.10
2023-01-20T19:08:30.840Z,0.90
2023-01-20T19:13:34.640Z,1.07
2023-01-20T19:18:39.930Z,1.00
2023-01-20T19:23:44.434Z,1.50
2023-01-20T19:28:50.294Z,1.23
2023-01-20T19:33:55.459Z,1.93
2023-01-20T19:39:01.046Z,1.23
2023-01-20T19:44:06.910Z,1.13
2023-01-20T19:49:13.119Z,1.10
2023-01-20T19:54:16.907Z,1.37
2023-01-20T19:59:20.563Z,1.30
2023-01-20T20:04:25.503Z,0.97
2023-01-20T20:09:29.306Z,1.57
2023-01-20T20:14:33.457Z,1.20
2023-01-20T20:19:39.071Z,1.20
2023-01-20T20:24:42.895Z,1.17
2023-01-20T20:29:46.840Z,1.40
2023-01-20T20:34:51.839Z,1.67
2023-01-20T20:39:55.252Z,1.60
2023-01-20T20:44:58.660Z,1.70
2023-01-20T20:50:03.469Z,1.77
2023-01-20T20:55:07.899Z,1.70
2023-01-20T21:00:12.811Z,1.77
2023-01-20T21:05:19.083Z,1.83
2023-01-20T21:10:23.278Z,1.60
2023-01-20T21:15:26.716Z,2.70
2023-01-20T21:20:33.710Z,3.00
2023-01-20T21:25:37.132Z,1.90
2023-01-20T21:30:40.483Z,2.27
2023-01-20T21:35:45.782Z,1.87
2023-01-20T21:41:01.376Z,1.63
2023-01-20T21:46:05.062Z,0.40
2023-01-20T21:51:28.886Z,0.40
2023-01-20T21:56:32.622Z,0.50
2023-01-20T22:01:36.452Z,0.50
2023-01-20T22:06:43.090Z,0.60
2023-01-20T22:11:46.649Z,0.70
2023-01-20T22:16:50.062Z,0.80
2023-01-20T22:21:56.803Z,0.90
2023-01-20T22:27:00.487Z,0.77
2023-01-20T22:32:05.050Z,0.87
2023-01-20T22:37:10.208Z,0.80
2023-01-20T22:42:13.570Z,1.00
2023-01-20T22:47:16.993Z,1.40
2023-01-20T22:52:21.850Z,1.30
2023-01-20T22:57:25.251Z,1.10
2023-01-20T23:02:28.952Z,1.17
2023-01-20T23:07:35.407Z,1.10
2023-01-20T23:12:38.870Z,1.00
2023-01-20T23:17:42.864Z,1.07
2023-01-20T23:22:47.954Z,1.20
2023-01-20T23:27:51.356Z,1.30
2023-01-20T23:32:54.854Z,1.03
2023-01-20T23:37:59.618Z,1.10
2023-01-20T23:43:03.531Z,1.07
2023-01-20T23:48:07.557Z,1.00
2023-01-20T23:53:12.609Z,1.10
2023-01-20T23:58:16.636Z,1.20
